APL New Jersey — A8NM6 — position and weather

sailwx.info

Track history (hours):
 
Tides and Currents Weather Stations Pressure Air Temp Water Temp Dewpoint Dewpoint Depression Visibility Wind Speed Wind Dir Waves Ship Positions

APL New Jersey

Last reported at 2014-Sep-20 03:28 UTC. Time now 2014-Sep-20 03:57 UTC.
Position N 33°44' W 118°15'.

Length 293 m; draft 12.8 m.

Type: Cargo ship. MMSI: 636013522.

Date/timePositionNaut miles runAvg speedWind from/ knotsBaromVisibWave heightAir tempDewpointWater temp
2014-Sep-20 03:28N 33°44' W 118°15'0 0.0
2014-Sep-20 02:31N 33°44' W 118°15'0 0.0
2014-Sep-20 01:31N 33°44' W 118°15'0 0.0
2014-Sep-20 00:31N 33°44' W 118°15'0 0.0
2014-Sep-19 23:31N 33°44' W 118°15'0 0.0
2014-Sep-19 22:31N 33°44' W 118°15'0 0.0
2014-Sep-19 21:31N 33°44' W 118°15'0 0.0
2014-Sep-19 20:31N 33°44' W 118°15'0 0.0
2014-Sep-19 19:31N 33°44' W 118°15'0 0.0
2014-Sep-19 18:31N 33°44' W 118°15'0 0.0
2014-Sep-19 17:31N 33°44' W 118°15'0 0.0
2014-Sep-19 16:31N 33°44' W 118°15'0 0.0
2014-Sep-19 15:31N 33°44' W 118°15'0 0.0
2014-Sep-19 14:31N 33°44' W 118°15'0 0.0
2014-Sep-19 13:31N 33°44' W 118°15'0 0.0
2014-Sep-19 12:31N 33°44' W 118°15'0 0.0
2014-Sep-19 11:31N 33°44' W 118°15'0 0.0
2014-Sep-19 10:31N 33°44' W 118°15'0 0.0
2014-Sep-19 09:31N 33°44' W 118°15'0 0.0
2014-Sep-19 08:31N 33°44' W 118°15'0 0.0
2014-Sep-19 07:31N 33°44' W 118°15'0 0.0
2014-Sep-19 06:31N 33°44' W 118°15'0 0.0
2014-Sep-19 05:31N 33°44' W 118°15'0 0.0
2014-Sep-19 04:31N 33°44' W 118°15'0 0.0
2014-Sep-19 03:31N 33°44' W 118°15'0 0.0
2014-Sep-19 02:31N 33°44' W 118°15'0 0.0
2014-Sep-19 01:31N 33°44' W 118°15'0 0.0
2014-Sep-19 00:31N 33°44' W 118°15'0 0.0
2014-Sep-18 23:31N 33°44' W 118°15'0 0.0
2014-Sep-18 22:31N 33°44' W 118°15'0 0.0
2014-Sep-18 21:25N 33°44' W 118°15'0 0.0
2014-Sep-18 20:31N 33°44' W 118°15'0 0.0
2014-Sep-18 19:31N 33°44' W 118°15'0 0.0
2014-Sep-18 18:31N 33°44' W 118°15'0 0.0
2014-Sep-18 17:31N 33°44' W 118°15'0 0.0
2014-Sep-18 16:31N 33°44' W 118°15'0 0.0
2014-Sep-18 15:31N 33°44' W 118°15'0 0.0
2014-Sep-18 14:31N 33°44' W 118°15'0 0.0
2014-Sep-18 13:31N 33°44' W 118°15'0 0.0
2014-Sep-18 12:31N 33°44' W 118°15'0 0.0
2014-Sep-18 11:31N 33°44' W 118°15'0 0.0
2014-Sep-18 10:31N 33°44' W 118°15'0 0.0
2014-Sep-18 09:31N 33°44' W 118°15'0 0.0
2014-Sep-18 08:31N 33°44' W 118°15'0 0.0
2014-Sep-18 07:31N 33°44' W 118°15'0 0.0
2014-Sep-18 06:31N 33°44' W 118°15'0 0.0
2014-Sep-18 05:31N 33°44' W 118°15'0 0.0
2014-Sep-18 04:31N 33°44' W 118°15'0 0.0
2014-Sep-18 03:31N 33°44' W 118°15'0 0.0
2014-Sep-18 02:31N 33°44' W 118°15'1 1.1
2014-Sep-18 01:33N 33°43' W 118°16'6 6.3
2014-Sep-18 00:33N 33°37' W 118°15'7 7.2
2014-Sep-17 23:33N 33°37' W 118°24'9 8.8
2014-Sep-17 22:33N 33°42' W 118°33'9 9.4
2014-Sep-17 21:33N 33°47' W 118°43'9 9.3
2014-Sep-17 20:33N 33°51' W 118°53'9 9.3
2014-Sep-17 19:33N 33°56' W 119°02'9 9.3
2014-Sep-17 18:33N 34°00' W 119°12'10 9.7
2014-Sep-17 17:33N 34°04' W 119°23'9 9.4
2014-Sep-17 16:33N 34°06' W 119°34'10 9.6
2014-Sep-17 15:33N 34°09' W 119°45'9 9.4
2014-Sep-17 14:33N 34°12' W 119°56'10 9.7
2014-Sep-17 13:33N 34°14' W 120°07'10 9.8
2014-Sep-17 12:33N 34°17' W 120°19'10 9.6
2014-Sep-17 11:33N 34°19' W 120°30'1212.2
2014-Sep-17 10:33N 34°23' W 120°44'1212.3
2014-Sep-17 09:33N 34°26' W 120°59'1211.8
2014-Sep-17 08:34N 34°32' W 121°11'1313.0
2014-Sep-17 07:33N 34°42' W 121°21'1312.9
2014-Sep-17 06:33N 34°52' W 121°31'1313.4
2014-Sep-17 05:33N 35°02' W 121°41'1413.7
2014-Sep-17 04:33N 35°13' W 121°52'1514.6
2014-Sep-17 03:33N 35°24' W 122°04'1514.7
2014-Sep-17 02:33N 35°35' W 122°15'1414.3
2014-Sep-17 01:34N 35°46' W 122°27'1414.3
2014-Sep-17 00:33N 35°57' W 122°38'10 9.8
2014-Sep-16 23:33N 36°04' W 122°46'0 0.5
2014-Sep-16 22:33N 36°05' W 122°47'1 0.8
2014-Sep-16 21:33N 36°05' W 122°47'1312.9
2014-Sep-16 20:33N 36°13' W 122°59'1717.0
2014-Sep-16 19:33N 36°26' W 123°14'1716.8
2014-Sep-16 18:33N 36°38' W 123°28'1716.8
2014-Sep-16 17:34N 36°49' W 123°43'1716.9
2014-Sep-16 16:34N 37°01' W 123°58'1919.1
2014-Sep-16 15:33N 37°15' W 124°15'2120.8
2014-Sep-16 14:33N 37°29' W 124°34'2019.6
2014-Sep-16 13:33N 37°43' W 124°52'1919.3
2014-Sep-16 12:33N 37°56' W 125°09'1918.9
2014-Sep-16 11:33N 38°10' W 125°26'1918.7
2014-Sep-16 10:33N 38°23' W 125°43'2019.0
2014-Sep-16 09:32N 38°36' W 126°02'46319.0
2014-Sep-15 09:08N 43°42' W 133°44'  
Track history (hours):
 
Tides and Currents Weather Stations Pressure Air Temp Water Temp Dewpoint Dewpoint Depression Visibility Wind Speed Wind Dir Waves Ship Positions

APL New Jersey

Last reported at 2014-Sep-20 03:28 UTC. Time now 2014-Sep-20 03:57 UTC.
Position N 33°44' W 118°15'.

Length 293 m; draft 12.8 m.

Type: Cargo ship. MMSI: 636013522.

Date/timePositionNaut miles runAvg speedWind from/ knotsBaromVisibWave heightAir tempDewpointWater temp
2014-Sep-20 03:28N 33°44' W 118°15'0 0.0
2014-Sep-20 02:31N 33°44' W 118°15'0 0.0
2014-Sep-20 01:31N 33°44' W 118°15'0 0.0
2014-Sep-20 00:31N 33°44' W 118°15'0 0.0
2014-Sep-19 23:31N 33°44' W 118°15'0 0.0
2014-Sep-19 22:31N 33°44' W 118°15'0 0.0
2014-Sep-19 21:31N 33°44' W 118°15'0 0.0
2014-Sep-19 20:31N 33°44' W 118°15'0 0.0
2014-Sep-19 19:31N 33°44' W 118°15'0 0.0
2014-Sep-19 18:31N 33°44' W 118°15'0 0.0
2014-Sep-19 17:31N 33°44' W 118°15'0 0.0
2014-Sep-19 16:31N 33°44' W 118°15'0 0.0
2014-Sep-19 15:31N 33°44' W 118°15'0 0.0
2014-Sep-19 14:31N 33°44' W 118°15'0 0.0
2014-Sep-19 13:31N 33°44' W 118°15'0 0.0
2014-Sep-19 12:31N 33°44' W 118°15'0 0.0
2014-Sep-19 11:31N 33°44' W 118°15'0 0.0
2014-Sep-19 10:31N 33°44' W 118°15'0 0.0
2014-Sep-19 09:31N 33°44' W 118°15'0 0.0
2014-Sep-19 08:31N 33°44' W 118°15'0 0.0
2014-Sep-19 07:31N 33°44' W 118°15'0 0.0
2014-Sep-19 06:31N 33°44' W 118°15'0 0.0
2014-Sep-19 05:31N 33°44' W 118°15'0 0.0
2014-Sep-19 04:31N 33°44' W 118°15'0 0.0
2014-Sep-19 03:31N 33°44' W 118°15'0 0.0
2014-Sep-19 02:31N 33°44' W 118°15'0 0.0
2014-Sep-19 01:31N 33°44' W 118°15'0 0.0
2014-Sep-19 00:31N 33°44' W 118°15'0 0.0
2014-Sep-18 23:31N 33°44' W 118°15'0 0.0
2014-Sep-18 22:31N 33°44' W 118°15'0 0.0
2014-Sep-18 21:25N 33°44' W 118°15'0 0.0
2014-Sep-18 20:31N 33°44' W 118°15'0 0.0
2014-Sep-18 19:31N 33°44' W 118°15'0 0.0
2014-Sep-18 18:31N 33°44' W 118°15'0 0.0
2014-Sep-18 17:31N 33°44' W 118°15'0 0.0
2014-Sep-18 16:31N 33°44' W 118°15'0 0.0
2014-Sep-18 15:31N 33°44' W 118°15'0 0.0
2014-Sep-18 14:31N 33°44' W 118°15'0 0.0
2014-Sep-18 13:31N 33°44' W 118°15'0 0.0
2014-Sep-18 12:31N 33°44' W 118°15'0 0.0
2014-Sep-18 11:31N 33°44' W 118°15'0 0.0
2014-Sep-18 10:31N 33°44' W 118°15'0 0.0
2014-Sep-18 09:31N 33°44' W 118°15'0 0.0
2014-Sep-18 08:31N 33°44' W 118°15'0 0.0
2014-Sep-18 07:31N 33°44' W 118°15'0 0.0
2014-Sep-18 06:31N 33°44' W 118°15'0 0.0
2014-Sep-18 05:31N 33°44' W 118°15'0 0.0
2014-Sep-18 04:31N 33°44' W 118°15'0 0.0
2014-Sep-18 03:31N 33°44' W 118°15'0 0.0
2014-Sep-18 02:31N 33°44' W 118°15'1 1.1
2014-Sep-18 01:33N 33°43' W 118°16'6 6.3
2014-Sep-18 00:33N 33°37' W 118°15'7 7.2
2014-Sep-17 23:33N 33°37' W 118°24'9 8.8
2014-Sep-17 22:33N 33°42' W 118°33'9 9.4
2014-Sep-17 21:33N 33°47' W 118°43'9 9.3
2014-Sep-17 20:33N 33°51' W 118°53'9 9.3
2014-Sep-17 19:33N 33°56' W 119°02'9 9.3
2014-Sep-17 18:33N 34°00' W 119°12'10 9.7
2014-Sep-17 17:33N 34°04' W 119°23'9 9.4
2014-Sep-17 16:33N 34°06' W 119°34'10 9.6
2014-Sep-17 15:33N 34°09' W 119°45'9 9.4
2014-Sep-17 14:33N 34°12' W 119°56'10 9.7
2014-Sep-17 13:33N 34°14' W 120°07'10 9.8
2014-Sep-17 12:33N 34°17' W 120°19'10 9.6
2014-Sep-17 11:33N 34°19' W 120°30'1212.2
2014-Sep-17 10:33N 34°23' W 120°44'1212.3
2014-Sep-17 09:33N 34°26' W 120°59'1211.8
2014-Sep-17 08:34N 34°32' W 121°11'1313.0
2014-Sep-17 07:33N 34°42' W 121°21'1312.9
2014-Sep-17 06:33N 34°52' W 121°31'1313.4
2014-Sep-17 05:33N 35°02' W 121°41'1413.7
2014-Sep-17 04:33N 35°13' W 121°52'1514.6
2014-Sep-17 03:33N 35°24' W 122°04'1514.7
2014-Sep-17 02:33N 35°35' W 122°15'1414.3
2014-Sep-17 01:34N 35°46' W 122°27'1414.3
2014-Sep-17 00:33N 35°57' W 122°38'10 9.8
2014-Sep-16 23:33N 36°04' W 122°46'0 0.5
2014-Sep-16 22:33N 36°05' W 122°47'1 0.8
2014-Sep-16 21:33N 36°05' W 122°47'1312.9
2014-Sep-16 20:33N 36°13' W 122°59'1717.0
2014-Sep-16 19:33N 36°26' W 123°14'1716.8
2014-Sep-16 18:33N 36°38' W 123°28'1716.8
2014-Sep-16 17:34N 36°49' W 123°43'1716.9
2014-Sep-16 16:34N 37°01' W 123°58'1919.1
2014-Sep-16 15:33N 37°15' W 124°15'2120.8
2014-Sep-16 14:33N 37°29' W 124°34'2019.6
2014-Sep-16 13:33N 37°43' W 124°52'1919.3
2014-Sep-16 12:33N 37°56' W 125°09'1918.9
2014-Sep-16 11:33N 38°10' W 125°26'1918.7
2014-Sep-16 10:33N 38°23' W 125°43'2019.0
2014-Sep-16 09:32N 38°36' W 126°02'46319.0
2014-Sep-15 09:08N 43°42' W 133°44'  

Dump ship's entire track history